메인 페이지
METAR-TAF:

METAR-TAF

공항 :

그란카나리아 섬, 스페인

위도: 27-56N, 경도: 015-23W, 고도: 23m

현재 날씨관측

예보는 18분 전, 09:30시(UTC)에 발표되었습니다.
북북동16kt
온도 23°C
습도 73%
기압 1018 hPa
시정 10km 이상
고도 1800ft 상공 구름 보통
고도 3000ft 상공 구름 많음

METAR: GCLP 150930Z 02016KT 9999 SCT018 BKN030 23/18 Q1018 NOSIG

시각: 10:48 (09:48 UTC)

예보

예보는 1 시간 48분 전, 08:00시(UTC)에 발표되었습니다.
예보 대상 시간: 15일 09시부터 16일 09시까지 (UTC)
20kt
시정 10km 이상
고도 2500ft 상공 구름 보통

TAF: GCLP 150800Z 1509/1609 01020KT 9999 SCT025 TX24/1515Z TN21/1605Z

4,000개 이상의 공항 관측 자료 및 예보 (METAR 및 TAF 보고).

지도상에서 검색 가능한 기상관측소가 노란 점과 빨간 점으로 표시되어 있습니다.

기상관측소 명을 보려면 표시 위로 마우스를 이동하세요.

날씨 관측과 예보를 보려면 클릭하세요.

지도 변경 : 확대하려면 엑스 표시가 있는 녹색 버튼, 축소하려면 빼기 표시가 있는 녹색 버튼, 다음 페이지의 지도를 보려면 녹색 화살표를 클릭하세요.


METAR-TAF: